CMA CGM Nevada — 9HA3474 — position and weather

sailwx.info

Track history (hours):
 
Tides and Currents Weather Stations Pressure Air Temp Water Temp Dewpoint Dewpoint Depression Visibility Wind Speed Wind Dir Waves Ship Positions

CMA CGM Nevada

Last reported at 2017-Dec-09 18:00 UTC. Time now 2017-Dec-11 09:42 UTC.
Position N 10°48' E 062°48'.

Length 366 m; draft 13.9 m.

Type: Ship (hazmat cat A). MMSI: 229639000.

Wind from 040 at 20 knots

Barometer 1014.4 mb
Air temperature 27.0 ° C
Visibility: greater than 10.8 NM
Dewpoint 22.6 ° C
Water temperature 28.0 ° C

Date/timePositionNaut miles runAvg speedWind from/ knotsBaromVisibWave heightAir tempDewpointWater temp
2017-Dec-09 18:00N 10°48' E 062°48'14023.4 040 / 201014.410.8 27.022.628.0
2017-Dec-09 12:00N 10°12' E 065°06'5116.9 090 / 111011.710.8 25.022.029.0
2017-Dec-09 09:00N 09°54' E 065°54'5518.2 020 / 101012.010.8 27.021.029.0
2017-Dec-09 06:00N 09°42' E 066°48'24820.6 030 / 111014.410.8 27.022.629.0
2017-Dec-08 18:00N 08°30' E 070°48'21317.7 360 / 131013.210.8 27.022.629.0
2017-Dec-08 06:00N 07°24' E 074°12'24320.3 320 / 121012.410.8 29.024.830.0
2017-Dec-07 18:00N 06°12' E 078°06'24220.2 340 / 51012.510.8 26.522.829.0
2017-Dec-07 06:00N 05°30' E 082°06'35819.9 340 / 171010.910.8 28.023.729.0
2017-Dec-06 12:00N 05°42' E 088°06'10817.9 270 / 171008.010.8 28.023.729.0
2017-Dec-06 06:00N 05°48' E 089°54'84018.5 270 / 251008.2 5.4 25.521.830.0
2017-Dec-04 08:42N 01°23' E 103°13'521.0
2017-Dec-04 08:27N 01°20' E 103°17'920.4
2017-Dec-04 08:00N 01°14' E 103°24'918.0
2017-Dec-04 07:30N 01°12' E 103°33'611.8
2017-Dec-04 06:59N 01°12' E 103°39'3 7.3
2017-Dec-04 06:30N 01°14' E 103°42'4 8.8
2017-Dec-04 06:00N 01°16' E 103°46'1 2.6
2017-Dec-04 05:28N 01°16' E 103°47'0 0.0
2017-Dec-04 04:58N 01°16' E 103°47'0 0.0
2017-Dec-04 04:28N 01°16' E 103°47'0 0.0
2017-Dec-04 03:58N 01°16' E 103°47'0 0.0
2017-Dec-04 03:28N 01°16' E 103°47'0 0.0
2017-Dec-04 02:58N 01°16' E 103°47'0 0.0
2017-Dec-04 02:28N 01°16' E 103°47'0 0.0
2017-Dec-04 01:58N 01°16' E 103°47'0 0.0
2017-Dec-04 01:25N 01°16' E 103°47'0 0.0
2017-Dec-04 00:58N 01°16' E 103°47'0 0.0
2017-Dec-04 00:28N 01°16' E 103°47'0 0.0
2017-Dec-03 23:55N 01°16' E 103°47'0 0.0
2017-Dec-03 23:28N 01°16' E 103°47'0 0.0
2017-Dec-03 22:43N 01°16' E 103°47'0 0.0
2017-Dec-03 22:25N 01°16' E 103°47'0 0.0
2017-Dec-03 21:55N 01°16' E 103°47'0 0.0
2017-Dec-03 21:25N 01°16' E 103°47'0 0.0
2017-Dec-03 20:55N 01°16' E 103°47'0 0.0
2017-Dec-03 20:13N 01°16' E 103°47'0 0.0
2017-Dec-03 19:43N 01°16' E 103°47'0 0.0
2017-Dec-03 19:25N 01°16' E 103°47'0 0.0
2017-Dec-03 18:55N 01°16' E 103°47'0 0.0
2017-Dec-03 18:25N 01°16' E 103°47'0 0.0
2017-Dec-03 17:55N 01°16' E 103°47'0 0.0
2017-Dec-03 17:25N 01°16' E 103°47'0 0.0
2017-Dec-03 16:55N 01°16' E 103°47'0 0.0
2017-Dec-03 16:25N 01°16' E 103°47'0 0.0
2017-Dec-03 15:55N 01°16' E 103°47'0 0.0
2017-Dec-03 15:25N 01°16' E 103°47'0 0.0
2017-Dec-03 14:58N 01°16' E 103°47'0 0.0
2017-Dec-03 14:22N 01°16' E 103°47'0 0.0
2017-Dec-03 13:55N 01°16' E 103°47'0 0.0
2017-Dec-03 13:25N 01°16' E 103°47'0 0.0
2017-Dec-03 12:55N 01°16' E 103°47'0 0.0
2017-Dec-03 12:25N 01°16' E 103°47'0 0.0
2017-Dec-03 11:55N 01°16' E 103°47'0 0.0
2017-Dec-03 11:25N 01°16' E 103°47'0 0.0
2017-Dec-03 10:55N 01°16' E 103°47'0 0.0
2017-Dec-03 10:19N 01°16' E 103°47'0 0.2
2017-Dec-03 09:55N 01°16' E 103°47'0 0.1
2017-Dec-03 09:28N 01°16' E 103°47'0 0.0
2017-Dec-03 08:58N 01°16' E 103°47'0 0.0
2017-Dec-03 08:28N 01°16' E 103°47'0 0.0
2017-Dec-03 07:58N 01°16' E 103°47'0 0.0
2017-Dec-03 07:25N 01°16' E 103°47'0 0.0
2017-Dec-03 07:00N 01°16' E 103°47'0 0.4
2017-Dec-03 06:30N 01°16' E 103°47'1 1.6
2017-Dec-03 06:01N 01°15' E 103°47'2 4.5
2017-Dec-03 05:30N 01°13' E 103°48'3 6.7
2017-Dec-03 05:01N 01°12' E 103°51'4 7.1
2017-Dec-03 04:31N 01°14' E 103°54'4 8.0
2017-Dec-03 04:00N 01°15' E 103°58'5 9.5
2017-Dec-03 03:30N 01°16' E 104°03'6 9.9
2017-Dec-03 02:53N 01°17' E 104°09'12 8.9
2017-Dec-03 01:31N 01°19' E 104°21'2 9.5
2017-Dec-03 01:18N 01°21' E 104°22'3 9.2
2017-Dec-03 00:56N 01°23' E 104°25'  
Track history (hours):
 
Tides and Currents Weather Stations Pressure Air Temp Water Temp Dewpoint Dewpoint Depression Visibility Wind Speed Wind Dir Waves Ship Positions

CMA CGM Nevada

Last reported at 2017-Dec-09 18:00 UTC. Time now 2017-Dec-11 09:42 UTC.
Position N 10°48' E 062°48'.

Length 366 m; draft 13.9 m.

Type: Ship (hazmat cat A). MMSI: 229639000.

Wind from 040 at 20 knots

Barometer 1014.4 mb
Air temperature 27.0 ° C
Visibility: greater than 10.8 NM
Dewpoint 22.6 ° C
Water temperature 28.0 ° C

Date/timePositionNaut miles runAvg speedWind from/ knotsBaromVisibWave heightAir tempDewpointWater temp
2017-Dec-09 18:00N 10°48' E 062°48'14023.4 040 / 201014.410.8 27.022.628.0
2017-Dec-09 12:00N 10°12' E 065°06'5116.9 090 / 111011.710.8 25.022.029.0
2017-Dec-09 09:00N 09°54' E 065°54'5518.2 020 / 101012.010.8 27.021.029.0
2017-Dec-09 06:00N 09°42' E 066°48'24820.6 030 / 111014.410.8 27.022.629.0
2017-Dec-08 18:00N 08°30' E 070°48'21317.7 360 / 131013.210.8 27.022.629.0
2017-Dec-08 06:00N 07°24' E 074°12'24320.3 320 / 121012.410.8 29.024.830.0
2017-Dec-07 18:00N 06°12' E 078°06'24220.2 340 / 51012.510.8 26.522.829.0
2017-Dec-07 06:00N 05°30' E 082°06'35819.9 340 / 171010.910.8 28.023.729.0
2017-Dec-06 12:00N 05°42' E 088°06'10817.9 270 / 171008.010.8 28.023.729.0
2017-Dec-06 06:00N 05°48' E 089°54'84018.5 270 / 251008.2 5.4 25.521.830.0
2017-Dec-04 08:42N 01°23' E 103°13'521.0
2017-Dec-04 08:27N 01°20' E 103°17'920.4
2017-Dec-04 08:00N 01°14' E 103°24'918.0
2017-Dec-04 07:30N 01°12' E 103°33'611.8
2017-Dec-04 06:59N 01°12' E 103°39'3 7.3
2017-Dec-04 06:30N 01°14' E 103°42'4 8.8
2017-Dec-04 06:00N 01°16' E 103°46'1 2.6
2017-Dec-04 05:28N 01°16' E 103°47'0 0.0
2017-Dec-04 04:58N 01°16' E 103°47'0 0.0
2017-Dec-04 04:28N 01°16' E 103°47'0 0.0
2017-Dec-04 03:58N 01°16' E 103°47'0 0.0
2017-Dec-04 03:28N 01°16' E 103°47'0 0.0
2017-Dec-04 02:58N 01°16' E 103°47'0 0.0
2017-Dec-04 02:28N 01°16' E 103°47'0 0.0
2017-Dec-04 01:58N 01°16' E 103°47'0 0.0
2017-Dec-04 01:25N 01°16' E 103°47'0 0.0
2017-Dec-04 00:58N 01°16' E 103°47'0 0.0
2017-Dec-04 00:28N 01°16' E 103°47'0 0.0
2017-Dec-03 23:55N 01°16' E 103°47'0 0.0
2017-Dec-03 23:28N 01°16' E 103°47'0 0.0
2017-Dec-03 22:43N 01°16' E 103°47'0 0.0
2017-Dec-03 22:25N 01°16' E 103°47'0 0.0
2017-Dec-03 21:55N 01°16' E 103°47'0 0.0
2017-Dec-03 21:25N 01°16' E 103°47'0 0.0
2017-Dec-03 20:55N 01°16' E 103°47'0 0.0
2017-Dec-03 20:13N 01°16' E 103°47'0 0.0
2017-Dec-03 19:43N 01°16' E 103°47'0 0.0
2017-Dec-03 19:25N 01°16' E 103°47'0 0.0
2017-Dec-03 18:55N 01°16' E 103°47'0 0.0
2017-Dec-03 18:25N 01°16' E 103°47'0 0.0
2017-Dec-03 17:55N 01°16' E 103°47'0 0.0
2017-Dec-03 17:25N 01°16' E 103°47'0 0.0
2017-Dec-03 16:55N 01°16' E 103°47'0 0.0
2017-Dec-03 16:25N 01°16' E 103°47'0 0.0
2017-Dec-03 15:55N 01°16' E 103°47'0 0.0
2017-Dec-03 15:25N 01°16' E 103°47'0 0.0
2017-Dec-03 14:58N 01°16' E 103°47'0 0.0
2017-Dec-03 14:22N 01°16' E 103°47'0 0.0
2017-Dec-03 13:55N 01°16' E 103°47'0 0.0
2017-Dec-03 13:25N 01°16' E 103°47'0 0.0
2017-Dec-03 12:55N 01°16' E 103°47'0 0.0
2017-Dec-03 12:25N 01°16' E 103°47'0 0.0
2017-Dec-03 11:55N 01°16' E 103°47'0 0.0
2017-Dec-03 11:25N 01°16' E 103°47'0 0.0
2017-Dec-03 10:55N 01°16' E 103°47'0 0.0
2017-Dec-03 10:19N 01°16' E 103°47'0 0.2
2017-Dec-03 09:55N 01°16' E 103°47'0 0.1
2017-Dec-03 09:28N 01°16' E 103°47'0 0.0
2017-Dec-03 08:58N 01°16' E 103°47'0 0.0
2017-Dec-03 08:28N 01°16' E 103°47'0 0.0
2017-Dec-03 07:58N 01°16' E 103°47'0 0.0
2017-Dec-03 07:25N 01°16' E 103°47'0 0.0
2017-Dec-03 07:00N 01°16' E 103°47'0 0.4
2017-Dec-03 06:30N 01°16' E 103°47'1 1.6
2017-Dec-03 06:01N 01°15' E 103°47'2 4.5
2017-Dec-03 05:30N 01°13' E 103°48'3 6.7
2017-Dec-03 05:01N 01°12' E 103°51'4 7.1
2017-Dec-03 04:31N 01°14' E 103°54'4 8.0
2017-Dec-03 04:00N 01°15' E 103°58'5 9.5
2017-Dec-03 03:30N 01°16' E 104°03'6 9.9
2017-Dec-03 02:53N 01°17' E 104°09'12 8.9
2017-Dec-03 01:31N 01°19' E 104°21'2 9.5
2017-Dec-03 01:18N 01°21' E 104°22'3 9.2
2017-Dec-03 00:56N 01°23' E 104°25'  

Dump ship's entire track history